Time;durP1;ratioP1;P1;durP2;ratioP2;P2;SDS_P1;SDS_P2;PMS_P1;PMS_P2;Temp;Humidity;BMP_temperature;BMP_pressure;BME280_temperature;BME280_humidity;BME280_pressure;Samples;Min_cycle;Max_cycle;Signal;HPM_P1;HPM_P2
2021/10/09 00:00:50;;;;;;;24.73;15.30;;;11.30;92.10;;;;;;4993413;28;20632;-78
2021/10/09 00:03:16;;;;;;;20.70;14.50;;;11.30;92.00;;;;;;4992491;28;20172;-78
2021/10/09 00:05:42;;;;;;;23.53;15.90;;;11.30;92.00;;;;;;4991991;28;20489;-78
2021/10/09 00:08:14;;;;;;;21.67;14.03;;;11.30;91.90;;;;;;4991228;28;20569;-78
2021/10/09 00:10:41;;;;;;;21.20;15.20;;;11.30;91.80;;;;;;4993167;28;20582;-77
2021/10/09 00:13:06;;;;;;;22.70;14.10;;;11.20;91.80;;;;;;4992910;28;20406;-77
2021/10/09 00:15:32;;;;;;;25.90;14.40;;;11.20;91.90;;;;;;4992692;28;20441;-78
2021/10/09 00:18:00;;;;;;;28.53;15.30;;;11.10;92.00;;;;;;4993012;28;20184;-78
2021/10/09 00:20:30;;;;;;;31.07;14.63;;;11.10;92.10;;;;;;4991661;28;20168;-76
2021/10/09 00:22:56;;;;;;;23.17;14.97;;;11.00;92.20;;;;;;4992513;28;20427;-77
2021/10/09 00:25:22;;;;;;;21.53;13.63;;;11.00;92.30;;;;;;4992479;28;20415;-76
2021/10/09 00:27:48;;;;;;;24.73;15.07;;;11.00;92.70;;;;;;4992548;28;20203;-76
2021/10/09 00:30:14;;;;;;;25.97;17.27;;;10.90;92.30;;;;;;4990403;28;20812;-77
2021/10/09 00:32:39;;;;;;;26.43;15.87;;;10.90;92.40;;;;;;4991285;28;20510;-77
2021/10/09 00:35:06;;;;;;;22.67;15.43;;;10.90;92.40;;;;;;4975342;28;20506;-78
2021/10/09 00:37:31;;;;;;;22.10;14.47;;;10.90;92.40;;;;;;4992694;28;20365;-78
2021/10/09 00:39:57;;;;;;;26.97;16.60;;;10.90;92.50;;;;;;4974681;28;20411;-78
2021/10/09 00:42:23;;;;;;;24.47;16.50;;;10.90;92.50;;;;;;4991234;28;20171;-77
2021/10/09 00:44:49;;;;;;;22.57;14.87;;;10.80;92.50;;;;;;4994334;28;20175;-77
2021/10/09 00:47:16;;;;;;;27.83;17.67;;;10.80;92.50;;;;;;4992746;28;20556;-77
2021/10/09 00:49:42;;;;;;;23.03;15.20;;;10.80;92.40;;;;;;4991283;28;20173;-77
2021/10/09 00:52:11;;;;;;;25.57;15.37;;;10.80;92.40;;;;;;4991169;28;20423;-77
2021/10/09 00:54:44;;;;;;;24.57;16.07;;;10.80;92.40;;;;;;4992370;28;20411;-77
2021/10/09 00:57:13;;;;;;;23.80;14.60;;;10.80;92.40;;;;;;4992611;28;20940;-77
2021/10/09 00:59:40;;;;;;;26.23;17.03;;;10.70;92.30;;;;;;4993524;28;20418;-77
2021/10/09 01:02:07;;;;;;;27.30;17.00;;;10.70;92.30;;;;;;4992898;28;20951;-77
2021/10/09 01:04:34;;;;;;;28.33;17.93;;;10.70;92.40;;;;;;4992772;28;20418;-77
2021/10/09 01:07:06;;;;;;;23.37;16.10;;;10.60;92.80;;;;;;4991310;28;20458;-76
2021/10/09 01:09:32;;;;;;;28.13;16.57;;;10.60;92.50;;;;;;4991224;28;20497;-77
2021/10/09 01:12:01;;;;;;;29.30;17.00;;;10.60;92.60;;;;;;4990541;28;20907;-77
2021/10/09 01:14:27;;;;;;;25.77;16.60;;;10.60;92.70;;;;;;4990719;28;20410;-76
2021/10/09 01:16:53;;;;;;;29.90;16.83;;;10.60;92.60;;;;;;4974646;28;20594;-77
2021/10/09 01:19:20;;;;;;;28.17;17.67;;;10.50;92.50;;;;;;4990436;28;20461;-76
2021/10/09 01:21:50;;;;;;;29.33;18.13;;;10.50;92.60;;;;;;4990687;28;20179;-77
2021/10/09 01:24:17;;;;;;;22.97;16.53;;;10.50;92.60;;;;;;4991028;28;20461;-77
2021/10/09 01:26:46;;;;;;;27.50;17.17;;;10.50;92.60;;;;;;4990821;28;20459;-77
2021/10/09 01:29:15;;;;;;;29.40;17.57;;;10.50;92.50;;;;;;4990648;28;20415;-77
2021/10/09 01:31:45;;;;;;;27.60;17.60;;;10.40;92.50;;;;;;4974845;28;20423;-77
2021/10/09 01:34:20;;;;;;;29.90;19.47;;;10.40;92.50;;;;;;4990554;28;20411;-77
2021/10/09 01:36:47;;;;;;;28.27;17.80;;;10.40;92.50;;;;;;4974616;28;20484;-77
2021/10/09 01:39:15;;;;;;;26.57;17.20;;;10.40;92.50;;;;;;4990595;28;20427;-77
2021/10/09 01:41:48;;;;;;;33.33;19.03;;;10.30;92.50;;;;;;4976812;28;20262;-77
2021/10/09 01:44:16;;;;;;;27.60;16.77;;;10.30;92.60;;;;;;4994433;28;20478;-77
2021/10/09 01:46:43;;;;;;;27.00;17.63;;;10.30;92.60;;;;;;4994091;28;20991;-76
2021/10/09 01:49:10;;;;;;;26.40;17.53;;;10.30;92.60;;;;;;4994479;28;20466;-77
2021/10/09 01:51:36;;;;;;;37.10;23.10;;;10.20;92.60;;;;;;4977711;28;20978;-76
2021/10/09 01:54:02;;;;;;;30.87;19.23;;;10.20;92.60;;;;;;4994194;28;20171;-77
2021/10/09 01:56:28;;;;;;;25.57;16.57;;;10.20;92.60;;;;;;4995570;28;20170;-77
2021/10/09 01:58:55;;;;;;;23.60;16.27;;;10.10;92.50;;;;;;4994334;28;20450;-77
2021/10/09 02:01:30;;;;;;;27.00;17.20;;;10.10;92.60;;;;;;4995968;28;20417;-77
2021/10/09 02:03:56;;;;;;;24.03;16.63;;;10.10;92.60;;;;;;5000376;28;20423;-77
2021/10/09 02:06:22;;;;;;;25.97;17.27;;;10.00;92.80;;;;;;5004207;28;20196;-76
2021/10/09 02:08:49;;;;;;;30.20;17.23;;;10.00;93.00;;;;;;5013282;28;20454;-76
2021/10/09 02:11:19;;;;;;;33.47;18.50;;;10.00;93.00;;;;;;5011091;28;20419;-77
2021/10/09 02:14:02;;;;;;;28.70;19.53;;;9.90;93.50;;;;;;5002873;28;20411;-77
2021/10/09 02:27:10;;;;;;;28.00;16.60;;;9.90;93.70;;;;;;4993374;28;20540;-76
2021/10/09 02:29:38;;;;;;;28.63;17.37;;;9.90;93.90;;;;;;4977201;28;20423;-77
2021/10/09 02:32:04;;;;;;;23.83;15.93;;;9.90;93.60;;;;;;4976131;28;20793;-76
2021/10/09 02:34:30;;;;;;;33.00;18.77;;;9.90;93.60;;;;;;4993666;28;20426;-76
2021/10/09 02:36:56;;;;;;;31.97;17.57;;;9.80;93.60;;;;;;4993354;28;20434;-77
2021/10/09 02:39:23;;;;;;;34.70;19.27;;;9.80;93.40;;;;;;4993754;28;20179;-76
2021/10/09 02:41:52;;;;;;;34.93;18.13;;;9.80;93.50;;;;;;4992637;28;20223;-78
2021/10/09 02:44:19;;;;;;;27.80;17.13;;;9.80;93.60;;;;;;4993700;28;20426;-77
2021/10/09 02:46:45;;;;;;;30.40;18.30;;;9.70;93.60;;;;;;4994946;28;20820;-77
2021/10/09 02:49:10;;;;;;;28.73;17.33;;;9.70;93.70;;;;;;4993868;28;20414;-77
2021/10/09 02:51:36;;;;;;;30.73;18.00;;;9.70;93.80;;;;;;4993451;28;20254;-77
2021/10/09 02:54:02;;;;;;;31.40;18.33;;;9.60;93.80;;;;;;4994017;28;20258;-77
2021/10/09 02:56:28;;;;;;;28.17;18.10;;;9.70;93.90;;;;;;4992884;28;20534;-76
2021/10/09 02:58:54;;;;;;;32.13;17.87;;;9.60;93.90;;;;;;4992829;28;20191;-77
2021/10/09 03:01:20;;;;;;;25.40;16.73;;;9.60;93.90;;;;;;4992388;28;20423;-77
2021/10/09 03:03:46;;;;;;;30.97;18.00;;;9.60;94.00;;;;;;4992305;28;21037;-77
2021/10/09 03:06:11;;;;;;;30.53;17.77;;;9.60;94.00;;;;;;4993381;28;20202;-77
2021/10/09 03:08:37;;;;;;;33.63;17.43;;;9.60;94.00;;;;;;4994352;28;20198;-77
2021/10/09 03:11:03;;;;;;;26.73;17.30;;;9.60;94.10;;;;;;4992253;28;20182;-77
2021/10/09 03:13:29;;;;;;;28.23;17.53;;;9.50;94.00;;;;;;4992707;28;20168;-77
2021/10/09 03:15:55;;;;;;;29.50;17.90;;;9.50;94.10;;;;;;4993260;28;20399;-76
2021/10/09 03:18:20;;;;;;;29.67;17.70;;;9.50;94.20;;;;;;4993308;28;20206;-76
2021/10/09 03:20:47;;;;;;;26.27;16.30;;;9.50;94.20;;;;;;4991650;28;20175;-76
2021/10/09 03:23:14;;;;;;;26.53;16.17;;;9.40;94.00;;;;;;4991970;28;20421;-77
2021/10/09 03:25:39;;;;;;;32.40;18.03;;;9.40;94.00;;;;;;4992732;28;20952;-77
2021/10/09 03:28:07;;;;;;;25.20;16.17;;;9.40;94.10;;;;;;4993855;28;20203;-76
2021/10/09 03:30:33;;;;;;;26.07;16.70;;;9.40;94.10;;;;;;4976357;28;20415;-77
2021/10/09 03:32:59;;;;;;;27.10;16.57;;;9.40;94.10;;;;;;4991948;28;20176;-78
2021/10/09 03:35:25;;;;;;;24.00;15.70;;;9.40;94.20;;;;;;4994965;28;20934;-77
2021/10/09 03:37:51;;;;;;;26.90;17.30;;;9.40;94.10;;;;;;4994840;28;20188;-77
2021/10/09 03:40:22;;;;;;;29.00;16.90;;;9.30;93.90;;;;;;4977876;28;20191;-78
2021/10/09 03:42:52;;;;;;;27.13;15.30;;;9.30;94.10;;;;;;4992207;28;20490;-77
2021/10/09 03:48:00;;;;;;;24.63;16.37;;;9.30;94.10;;;;;;4992914;28;20450;-77
2021/10/09 03:53:04;;;;;;;22.33;16.37;;;9.30;94.10;;;;;;4991937;28;20916;-77
2021/10/09 03:55:30;;;;;;;30.07;18.00;;;9.30;94.00;;;;;;4975647;28;20414;-77
2021/10/09 03:57:56;;;;;;;26.27;17.00;;;9.30;94.10;;;;;;4991444;28;20445;-77
2021/10/09 04:00:22;;;;;;;25.57;16.13;;;9.30;94.10;;;;;;4993034;28;20505;-78
2021/10/09 04:02:56;;;;;;;27.70;17.03;;;9.30;94.20;;;;;;4991197;28;20167;-77
2021/10/09 04:05:22;;;;;;;24.90;16.87;;;9.20;94.20;;;;;;4990931;28;21009;-77
2021/10/09 04:07:51;;;;;;;27.83;17.10;;;9.20;94.20;;;;;;4991367;28;20294;-77
2021/10/09 04:10:18;;;;;;;28.10;16.00;;;9.20;94.20;;;;;;4991489;28;20506;-78
2021/10/09 04:12:44;;;;;;;23.30;15.93;;;9.20;94.00;;;;;;4975440;28;20271;-77
2021/10/09 04:15:10;;;;;;;28.53;17.73;;;9.10;93.90;;;;;;4991581;28;20929;-78
2021/10/09 04:17:37;;;;;;;25.73;16.20;;;9.10;94.10;;;;;;4991215;28;20187;-77
2021/10/09 04:20:05;;;;;;;23.63;15.30;;;9.10;94.10;;;;;;4991764;28;20882;-78
2021/10/09 04:22:31;;;;;;;29.50;15.83;;;9.10;94.00;;;;;;4991694;28;20410;-77
2021/10/09 04:24:57;;;;;;;29.60;16.13;;;9.10;94.20;;;;;;4992859;28;20419;-78
2021/10/09 04:27:23;;;;;;;33.20;16.60;;;9.10;94.10;;;;;;4991317;28;20211;-77
2021/10/09 04:29:49;;;;;;;26.60;15.13;;;9.00;94.00;;;;;;4991147;28;20426;-77
2021/10/09 04:32:15;;;;;;;21.20;13.60;;;9.00;94.00;;;;;;4991931;28;20504;-77
2021/10/09 04:34:41;;;;;;;24.03;15.03;;;9.00;94.00;;;;;;4991067;28;20550;-77
2021/10/09 04:37:07;;;;;;;23.43;14.10;;;9.00;93.90;;;;;;4990834;28;20443;-76
2021/10/09 04:39:33;;;;;;;25.57;14.10;;;8.90;93.90;;;;;;4990934;28;20267;-77
2021/10/09 04:42:02;;;;;;;20.67;15.63;;;9.00;93.90;;;;;;4990263;28;20415;-76
2021/10/09 04:44:29;;;;;;;23.00;14.80;;;8.90;93.70;;;;;;4974944;28;20415;-77
2021/10/09 04:46:54;;;;;;;27.27;15.50;;;8.90;93.70;;;;;;4990249;28;20462;-77
2021/10/09 04:49:21;;;;;;;22.20;15.07;;;8.90;93.70;;;;;;4990443;28;20414;-77
2021/10/09 04:51:48;;;;;;;21.40;15.70;;;8.90;93.90;;;;;;4990959;28;20470;-77
2021/10/09 04:54:15;;;;;;;24.00;14.73;;;8.80;93.60;;;;;;4992336;28;20469;-78
2021/10/09 04:56:42;;;;;;;23.27;15.47;;;8.80;93.80;;;;;;4990833;28;20513;-76
2021/10/09 04:59:08;;;;;;;24.33;15.70;;;8.80;93.80;;;;;;4990362;28;20445;-77
2021/10/09 05:01:35;;;;;;;24.20;15.20;;;8.80;93.80;;;;;;4989549;28;20608;-76
2021/10/09 05:04:01;;;;;;;25.70;16.63;;;8.80;93.80;;;;;;4990261;28;20422;-76
2021/10/09 05:06:29;;;;;;;23.53;16.73;;;8.80;93.70;;;;;;4990256;28;20459;-76
2021/10/09 05:08:55;;;;;;;24.77;16.00;;;8.80;93.80;;;;;;5018098;22;20494;-76
2021/10/09 05:11:21;;;;;;;24.30;15.80;;;8.80;93.80;;;;;;4996143;28;20560;-76
2021/10/09 05:13:49;;;;;;;21.30;14.10;;;8.70;93.70;;;;;;4994144;28;20437;-75
2021/10/09 05:16:15;;;;;;;23.90;14.77;;;8.80;93.70;;;;;;4995043;28;20410;-77
2021/10/09 05:18:42;;;;;;;22.30;15.20;;;8.70;93.60;;;;;;4995883;28;20885;-77
2021/10/09 05:21:08;;;;;;;26.57;16.20;;;8.70;93.60;;;;;;5000887;28;20521;-77
2021/10/09 05:23:36;;;;;;;32.73;17.07;;;8.70;93.60;;;;;;5033023;28;20171;-76
2021/10/09 05:26:04;;;;;;;22.87;16.93;;;8.70;93.70;;;;;;5015970;28;20421;-77
2021/10/09 05:31:04;;;;;;;26.80;14.87;;;8.60;93.60;;;;;;5015635;28;20413;-79
2021/10/09 05:35:57;;;;;;;24.40;15.50;;;8.60;93.70;;;;;;5029003;28;20450;-75
2021/10/09 05:38:24;;;;;;;28.10;15.03;;;8.60;93.70;;;;;;5045816;28;20472;-77
2021/10/09 05:40:51;;;;;;;22.77;16.03;;;8.60;93.80;;;;;;5014467;28;20412;-77
2021/10/09 05:43:20;;;;;;;30.37;17.70;;;8.60;93.80;;;;;;5031036;28;20493;-77
2021/10/09 05:45:46;;;;;;;25.20;16.23;;;8.60;93.80;;;;;;5013658;28;20581;-77
2021/10/09 05:48:13;;;;;;;25.30;16.33;;;8.60;93.90;;;;;;5014982;28;20438;-77
2021/10/09 05:53:26;;;;;;;28.70;15.17;;;8.60;93.90;;;;;;5016093;28;20952;-77
2021/10/09 05:56:03;;;;;;;25.20;15.43;;;8.60;93.90;;;;;;5020964;28;20426;-76
2021/10/09 06:47:50;;;;;;;25.73;16.70;;;9.40;92.20;;;;;;5024102;28;20484;-77
2021/10/09 06:50:52;;;;;;;29.03;16.33;;;9.50;92.40;;;;;;5022185;28;20257;-76
2021/10/09 06:59:37;;;;;;;30.83;19.07;;;9.70;92.40;;;;;;5019854;28;20430;-77
2021/10/09 07:01:44;;;;;;;31.00;18.60;;;9.80;92.50;;;;;;5004935;28;20466;-75
2021/10/09 07:04:10;;;;;;;30.07;18.20;;;9.90;92.50;;;;;;5018503;28;20981;-77
2021/10/09 07:06:45;;;;;;;26.97;16.80;;;10.00;91.80;;;;;;5033175;28;20504;-76
2021/10/09 07:09:26;;;;;;;31.07;19.00;;;10.10;91.80;;;;;;5017378;28;20198;-77
2021/10/09 07:11:56;;;;;;;27.60;18.53;;;10.20;91.80;;;;;;5014600;28;20440;-77
2021/10/09 07:14:22;;;;;;;33.00;17.77;;;10.30;91.80;;;;;;5017993;28;20505;-77
2021/10/09 07:16:48;;;;;;;37.43;20.17;;;10.40;91.70;;;;;;5018324;28;20178;-77
2021/10/09 07:19:14;;;;;;;32.73;19.63;;;10.50;91.80;;;;;;5027903;28;20322;-77
2021/10/09 07:21:43;;;;;;;30.37;20.20;;;10.60;92.20;;;;;;5031350;28;20418;-77
2021/10/09 07:24:08;;;;;;;36.13;21.23;;;10.70;91.80;;;;;;5009870;28;20476;-78
2021/10/09 07:26:34;;;;;;;32.30;17.90;;;10.80;92.00;;;;;;5028848;28;20532;-77
2021/10/09 07:29:00;;;;;;;30.73;20.20;;;10.90;91.90;;;;;;5033815;28;20214;-77
2021/10/09 07:31:26;;;;;;;35.63;21.63;;;11.00;91.70;;;;;;5023659;28;20214;-76
2021/10/09 07:33:52;;;;;;;40.23;22.27;;;11.20;91.60;;;;;;5018185;28;20497;-76
2021/10/09 07:36:18;;;;;;;33.27;20.50;;;11.30;91.10;;;;;;5014849;28;20171;-77
2021/10/09 07:38:44;;;;;;;33.60;21.47;;;11.90;92.20;;;;;;5016066;28;20730;-76
2021/10/09 07:41:10;;;;;;;36.70;18.90;;;13.80;90.30;;;;;;5028384;28;20176;-76
2021/10/09 07:43:36;;;;;;;31.33;19.70;;;16.20;81.20;;;;;;5015836;28;20415;-77
2021/10/09 07:46:02;;;;;;;31.57;19.50;;;18.30;70.00;;;;;;5032094;28;20540;-78
2021/10/09 07:48:28;;;;;;;27.43;17.40;;;19.80;60.50;;;;;;5015624;28;20259;-79
2021/10/09 07:50:56;;;;;;;28.40;19.20;;;20.40;56.20;;;;;;5017037;28;20171;-77
2021/10/09 07:53:22;;;;;;;28.30;17.43;;;20.30;53.90;;;;;;5018528;28;20233;-76
2021/10/09 07:55:48;;;;;;;25.67;18.80;;;19.50;53.10;;;;;;5015408;28;20422;-77
2021/10/09 07:58:13;;;;;;;26.03;17.77;;;18.80;54.70;;;;;;5013424;28;20457;-78
2021/10/09 08:00:42;;;;;;;24.23;17.60;;;18.20;55.20;;;;;;5015111;28;20209;-78
2021/10/09 08:03:08;;;;;;;25.83;19.37;;;17.50;56.70;;;;;;5019613;28;20178;-77
2021/10/09 08:05:35;;;;;;;28.20;17.20;;;17.30;58.80;;;;;;5016502;28;20429;-78
2021/10/09 08:08:03;;;;;;;25.43;18.13;;;18.00;57.70;;;;;;5011102;28;20512;-77
2021/10/09 08:10:29;;;;;;;29.20;17.63;;;19.30;55.00;;;;;;5015939;28;20411;-80
2021/10/09 08:12:55;;;;;;;22.73;16.50;;;19.80;52.60;;;;;;5031047;28;20462;-77
2021/10/09 08:15:21;;;;;;;23.60;17.50;;;20.80;52.20;;;;;;5017872;28;20426;-77
2021/10/09 08:17:47;;;;;;;22.83;16.70;;;22.20;49.80;;;;;;5017272;28;20720;-78
2021/10/09 08:20:13;;;;;;;22.90;16.60;;;23.40;46.60;;;;;;5020881;28;20206;-79
2021/10/09 08:22:57;;;;;;;21.37;16.47;;;24.30;45.00;;;;;;5023076;28;20167;-80
2021/10/09 08:35:20;;;;;;;26.33;17.27;;;26.00;40.60;;;;;;5018257;28;20458;-78
2021/10/09 08:36:29;;;;;;;25.20;16.97;;;27.80;36.50;;;;;;5018540;28;20970;-76
2021/10/09 08:38:55;;;;;;;19.03;16.90;;;28.10;35.90;;;;;;5005195;28;20995;-81
2021/10/09 08:41:21;;;;;;;21.83;17.97;;;28.80;34.70;;;;;;5014306;28;20418;-80
2021/10/09 08:43:50;;;;;;;18.17;14.93;;;29.10;33.40;;;;;;5021458;28;20254;-78
2021/10/09 08:46:18;;;;;;;15.03;13.20;;;28.90;33.50;;;;;;5018488;28;20233;-78
2021/10/09 08:48:48;;;;;;;19.17;15.97;;;29.00;33.20;;;;;;5032466;28;20940;-78
2021/10/09 08:51:23;;;;;;;20.17;16.00;;;29.00;31.50;;;;;;5017977;28;20425;-79
2021/10/09 08:53:49;;;;;;;22.40;14.80;;;29.10;32.20;;;;;;5017727;28;20451;-78
2021/10/09 08:56:48;;;;;;;17.93;15.77;;;29.20;32.60;;;;;;5017444;28;20453;-78
2021/10/09 08:59:31;;;;;;;16.93;14.50;;;29.80;31.00;;;;;;4970342;28;20966;-78
2021/10/09 09:02:15;;;;;;;25.33;18.60;;;29.80;30.40;;;;;;5010996;28;20934;-76
2021/10/09 09:07:34;;;;;;;19.00;15.33;;;30.10;30.20;;;;;;5012708;28;20489;-76
2021/10/09 09:35:00;;;;;;;21.10;14.73;;;31.20;28.50;;;;;;5018827;28;20449;-77
2021/10/09 09:40:12;;;;;;;20.10;15.97;;;31.90;28.00;;;;;;5021929;28;20421;-77
2021/10/09 09:42:51;;;;;;;17.87;15.00;;;31.90;27.80;;;;;;5021393;28;20413;-77
2021/10/09 09:45:25;;;;;;;16.83;15.13;;;31.90;27.10;;;;;;5024784;28;20450;-74
2021/10/09 09:48:02;;;;;;;16.13;14.53;;;32.10;27.50;;;;;;5014625;28;20965;-75
2021/10/09 09:50:28;;;;;;;17.27;15.57;;;32.40;27.20;;;;;;5019374;28;20413;-75
2021/10/09 09:52:55;;;;;;;17.97;14.53;;;32.60;27.00;;;;;;5025223;28;20429;-77
2021/10/09 09:55:20;;;;;;;15.93;13.53;;;32.50;27.00;;;;;;5028061;28;20513;-77
2021/10/09 09:57:48;;;;;;;19.60;15.70;;;32.30;27.10;;;;;;5014074;28;20489;-77
2021/10/09 10:00:16;;;;;;;15.90;14.30;;;32.00;27.60;;;;;;5015067;28;20430;-78
2021/10/09 10:02:50;;;;;;;17.10;15.43;;;32.20;27.20;;;;;;5017433;28;20418;-78
2021/10/09 10:05:17;;;;;;;16.00;14.53;;;31.80;27.30;;;;;;5012868;28;20780;-77
2021/10/09 10:07:43;;;;;;;17.90;13.50;;;31.60;27.60;;;;;;5017793;28;20990;-77
2021/10/09 10:10:09;;;;;;;15.63;14.03;;;31.70;27.60;;;;;;5005532;28;20432;-77
2021/10/09 10:12:39;;;;;;;16.50;14.90;;;31.60;27.50;;;;;;4997601;28;20183;-79
2021/10/09 10:15:14;;;;;;;15.47;13.73;;;31.50;28.10;;;;;;5019528;28;20442;-77
2021/10/09 10:17:47;;;;;;;15.67;13.97;;;31.30;28.50;;;;;;5017173;28;20840;-77
2021/10/09 10:20:15;;;;;;;18.73;15.13;;;30.50;28.30;;;;;;5016373;28;20445;-78
2021/10/09 10:22:40;;;;;;;16.07;13.80;;;29.80;29.10;;;;;;5015368;28;20430;-76
2021/10/09 10:25:21;;;;;;;15.17;13.50;;;28.50;30.40;;;;;;5018675;28;20430;-77
2021/10/09 10:27:57;;;;;;;17.00;13.97;;;26.80;32.70;;;;;;5019607;28;20187;-77
2021/10/09 10:30:24;;;;;;;28.40;17.70;;;25.40;34.80;;;;;;5017403;28;20449;-76
2021/10/09 10:32:55;;;;;;;19.77;13.83;;;24.20;37.10;;;;;;5017046;28;20448;-77
2021/10/09 10:35:30;;;;;;;19.77;14.30;;;23.10;39.00;;;;;;5019131;28;20824;-77
2021/10/09 10:38:03;;;;;;;22.50;14.43;;;22.10;40.90;;;;;;4999355;28;20458;-78
2021/10/09 10:40:54;;;;;;;19.73;13.43;;;21.30;42.40;;;;;;4998523;28;20872;-78
2021/10/09 10:45:59;;;;;;;17.90;13.77;;;20.20;45.20;;;;;;4996709;28;20420;-77
2021/10/09 10:49:10;;;;;;;19.07;15.10;;;19.70;45.60;;;;;;5001005;28;20442;-76
2021/10/09 10:56:58;;;;;;;21.70;12.50;;;18.90;47.50;;;;;;5016275;28;20514;-76
2021/10/09 10:59:57;;;;;;;24.17;14.33;;;18.70;48.00;;;;;;5002919;28;20476;-77
2021/10/09 11:02:27;;;;;;;16.57;11.90;;;18.50;48.50;;;;;;5016136;28;20931;-77
2021/10/09 11:05:05;;;;;;;17.17;13.00;;;18.40;49.30;;;;;;5016393;28;20425;-77
2021/10/09 11:07:35;;;;;;;20.77;11.90;;;18.50;49.40;;;;;;5017204;28;20406;-77
2021/10/09 11:10:09;;;;;;;17.50;11.77;;;18.50;48.90;;;;;;5031101;28;20411;-76
2021/10/09 11:12:40;;;;;;;16.60;10.50;;;18.50;49.00;;;;;;5015309;28;20441;-77
2021/10/09 11:15:06;;;;;;;18.13;9.87;;;18.40;48.90;;;;;;5017081;28;20465;-79
2021/10/09 11:17:36;;;;;;;19.70;13.30;;;18.40;49.10;;;;;;5023210;28;20453;-77
2021/10/09 11:20:24;;;;;;;13.13;10.33;;;18.40;49.10;;;;;;5016279;28;20426;-78
2021/10/09 11:22:52;;;;;;;20.60;10.17;;;18.50;48.90;;;;;;5015219;28;20418;-78
2021/10/09 11:25:25;;;;;;;18.30;10.03;;;18.40;48.40;;;;;;4997790;28;20422;-76
2021/10/09 11:27:52;;;;;;;14.33;10.93;;;18.40;48.50;;;;;;5014534;28;20437;-78
2021/10/09 11:30:18;;;;;;;12.73;9.63;;;18.40;48.40;;;;;;5015606;28;20456;-76
2021/10/09 11:32:45;;;;;;;14.27;9.73;;;18.30;48.40;;;;;;5029335;22;20487;-76
2021/10/09 11:35:13;;;;;;;12.90;9.73;;;18.30;49.10;;;;;;4994370;28;20740;-77
2021/10/09 11:37:51;;;;;;;13.53;8.97;;;18.20;48.80;;;;;;4992488;28;20482;-76
2021/10/09 11:40:38;;;;;;;12.90;9.10;;;18.20;49.20;;;;;;4991385;28;20427;-76
2021/10/09 11:43:13;;;;;;;15.90;9.70;;;18.20;49.60;;;;;;4992911;28;20491;-75
2021/10/09 11:54:04;;;;;;;16.97;9.83;;;18.20;49.80;;;;;;4979246;28;20438;-77
2021/10/09 11:56:30;;;;;;;12.80;9.87;;;18.30;50.10;;;;;;4973589;28;20867;-78
2021/10/09 11:58:59;;;;;;;18.77;10.27;;;18.20;49.60;;;;;;4973017;28;20519;-77
2021/10/09 12:01:27;;;;;;;12.83;8.40;;;18.10;50.00;;;;;;4974677;28;20674;-77
2021/10/09 12:03:53;;;;;;;13.50;9.33;;;18.10;50.40;;;;;;4956914;28;20451;-77
2021/10/09 12:06:19;;;;;;;14.90;9.00;;;18.10;50.10;;;;;;4974704;28;20921;-77
2021/10/09 12:08:52;;;;;;;12.10;9.50;;;18.00;50.20;;;;;;4972872;28;20165;-77
2021/10/09 12:11:31;;;;;;;12.60;9.10;;;18.00;50.50;;;;;;4972464;28;20181;-76
2021/10/09 12:13:57;;;;;;;13.60;10.57;;;18.10;51.00;;;;;;4973017;28;20491;-77
2021/10/09 12:16:25;;;;;;;18.23;10.07;;;18.10;50.60;;;;;;4972849;28;20511;-77
2021/10/09 12:18:59;;;;;;;21.80;10.83;;;18.10;50.50;;;;;;4973023;28;20467;-78
2021/10/09 12:21:38;;;;;;;25.83;18.10;;;18.20;50.60;;;;;;4978398;28;20443;-78
2021/10/09 12:24:14;;;;;;;13.43;8.97;;;18.20;50.60;;;;;;4982302;28;20578;-77
2021/10/09 12:26:40;;;;;;;17.00;10.90;;;18.20;50.10;;;;;;4974504;28;20525;-76
2021/10/09 12:29:08;;;;;;;14.37;10.80;;;18.10;50.40;;;;;;4973699;28;20427;-77
2021/10/09 12:31:48;;;;;;;17.33;11.13;;;18.10;50.70;;;;;;4975194;28;20420;-76
2021/10/09 12:34:31;;;;;;;15.77;9.90;;;18.10;50.80;;;;;;4974499;28;20502;-78
2021/10/09 12:37:11;;;;;;;12.00;9.40;;;18.20;51.10;;;;;;4973201;28;20782;-77
2021/10/09 12:39:37;;;;;;;13.60;8.40;;;18.20;50.30;;;;;;4974512;28;20427;-77
2021/10/09 12:42:03;;;;;;;13.27;8.27;;;18.20;50.20;;;;;;4975901;28;20436;-77
2021/10/09 12:44:28;;;;;;;9.50;7.80;;;18.20;50.60;;;;;;4974408;28;20408;-78
2021/10/09 12:46:54;;;;;;;12.13;7.87;;;18.30;50.70;;;;;;4972910;28;20204;-78
2021/10/09 12:49:19;;;;;;;13.70;7.70;;;18.30;50.80;;;;;;4976715;28;20168;-78
2021/10/09 12:51:48;;;;;;;11.33;7.53;;;18.30;50.30;;;;;;4974634;28;20184;-77
2021/10/09 12:54:17;;;;;;;13.07;8.37;;;18.30;50.40;;;;;;4974961;28;20236;-77
2021/10/09 12:56:44;;;;;;;13.37;9.83;;;18.30;50.70;;;;;;4976423;28;20415;-78
2021/10/09 12:59:11;;;;;;;16.70;8.47;;;18.30;49.80;;;;;;4977256;28;20423;-78
2021/10/09 13:01:37;;;;;;;15.20;9.53;;;18.30;49.60;;;;;;4976364;28;20459;-77
2021/10/09 13:04:03;;;;;;;15.37;8.97;;;18.30;50.00;;;;;;4974999;28;20412;-80
2021/10/09 13:06:29;;;;;;;12.50;8.30;;;18.30;50.30;;;;;;4976165;28;20458;-79
2021/10/09 13:08:55;;;;;;;8.47;5.80;;;18.30;49.70;;;;;;4976318;28;20873;-78
2021/10/09 13:11:24;;;;;;;13.43;6.30;;;18.30;48.30;;;;;;4975612;28;20543;-78
2021/10/09 13:13:49;;;;;;;11.80;6.97;;;18.30;47.60;;;;;;4975222;28;20406;-78
2021/10/09 13:16:15;;;;;;;27.17;19.00;;;18.20;47.90;;;;;;4974494;28;20662;-79
2021/10/09 13:18:41;;;;;;;12.13;6.77;;;18.30;47.90;;;;;;4976680;28;20173;-76
2021/10/09 13:21:07;;;;;;;7.87;5.73;;;18.30;47.80;;;;;;4974037;28;20175;-78
2021/10/09 13:23:33;;;;;;;10.90;7.07;;;18.30;47.20;;;;;;4975919;28;20694;-78
2021/10/09 13:25:59;;;;;;;9.87;6.70;;;18.30;47.20;;;;;;4972730;28;20165;-78
2021/10/09 13:28:26;;;;;;;11.67;6.03;;;18.30;46.80;;;;;;4972685;28;20836;-77
2021/10/09 13:30:52;;;;;;;8.17;6.00;;;18.30;46.30;;;;;;4977225;28;20497;-79
2021/10/09 13:33:19;;;;;;;9.93;5.40;;;18.30;46.00;;;;;;4975110;28;20452;-78
2021/10/09 13:35:45;;;;;;;13.20;5.50;;;18.30;46.20;;;;;;4975068;28;20427;-78
2021/10/09 13:38:12;;;;;;;16.17;6.60;;;18.30;46.20;;;;;;4977334;28;20431;-79
2021/10/09 13:41:03;;;;;;;9.40;5.93;;;18.30;46.40;;;;;;4977059;28;20542;-79
2021/10/09 13:43:29;;;;;;;16.87;6.60;;;18.30;46.10;;;;;;4979606;28;20436;-78
2021/10/09 13:45:54;;;;;;;8.50;6.50;;;18.30;45.80;;;;;;4977323;28;20255;-78
2021/10/09 13:48:20;;;;;;;11.47;5.47;;;18.30;45.90;;;;;;4975508;28;20709;-77
2021/10/09 13:50:52;;;;;;;12.13;7.97;;;18.30;45.90;;;;;;4977659;28;20160;-77
2021/10/09 13:53:18;;;;;;;11.30;7.30;;;18.20;45.80;;;;;;4977279;28;20188;-76
2021/10/09 13:55:43;;;;;;;9.83;5.90;;;18.20;45.50;;;;;;4979235;28;20474;-77
2021/10/09 13:58:11;;;;;;;9.53;6.10;;;18.20;45.20;;;;;;4975106;28;20418;-77
2021/10/09 14:00:39;;;;;;;6.90;5.33;;;18.20;44.90;;;;;;4977364;28;20527;-77
2021/10/09 14:03:05;;;;;;;9.60;6.20;;;18.10;45.30;;;;;;4976543;28;20431;-77
2021/10/09 14:05:31;;;;;;;7.20;5.03;;;18.10;45.60;;;;;;4975988;28;20426;-77
2021/10/09 14:07:57;;;;;;;8.33;5.40;;;18.10;45.70;;;;;;4976223;28;20458;-78
2021/10/09 14:10:23;;;;;;;8.67;6.40;;;18.10;46.40;;;;;;4976290;28;20462;-78
2021/10/09 14:12:49;;;;;;;8.80;6.27;;;18.10;46.20;;;;;;4976512;28;20211;-77
2021/10/09 14:15:15;;;;;;;8.93;5.20;;;18.20;46.50;;;;;;4980260;28;20494;-77
2021/10/09 14:17:40;;;;;;;8.33;6.60;;;18.20;46.00;;;;;;4976327;28;20169;-77
2021/10/09 14:20:09;;;;;;;16.67;8.90;;;18.20;45.90;;;;;;4979050;28;20533;-77
2021/10/09 14:22:35;;;;;;;12.10;6.00;;;18.20;46.30;;;;;;4959289;28;20207;-77
2021/10/09 14:25:03;;;;;;;7.33;5.83;;;18.20;46.10;;;;;;4977248;28;20478;-77
2021/10/09 14:27:28;;;;;;;6.83;5.37;;;18.10;45.80;;;;;;4977070;28;20451;-76
2021/10/09 14:29:58;;;;;;;9.37;5.37;;;18.10;45.70;;;;;;4979540;28;20445;-78
2021/10/09 14:32:24;;;;;;;11.40;6.23;;;18.10;45.40;;;;;;4981618;28;20208;-77
2021/10/09 14:34:50;;;;;;;8.47;5.37;;;18.10;45.70;;;;;;4966621;28;20439;-78
2021/10/09 14:37:16;;;;;;;8.03;5.90;;;18.00;45.40;;;;;;4983277;28;20415;-78
2021/10/09 14:39:43;;;;;;;8.00;6.27;;;18.00;45.60;;;;;;4983361;28;20180;-78
2021/10/09 14:42:09;;;;;;;9.57;6.60;;;18.00;45.60;;;;;;4979794;28;20184;-78
2021/10/09 14:44:34;;;;;;;9.37;7.10;;;18.00;46.40;;;;;;4980607;28;20408;-78
2021/10/09 14:49:49;;;;;;;15.20;6.93;;;18.20;46.60;;;;;;4975077;28;20165;-77
2021/10/09 15:16:18;;;;;;;23.87;16.03;;;17.80;47.20;;;;;;4974890;28;20423;-77
2021/10/09 15:19:27;;;;;;;7.70;5.27;;;17.60;47.60;;;;;;4922929;29;20418;-78
2021/10/09 15:21:53;;;;;;;9.40;5.50;;;17.60;47.90;;;;;;4920035;29;20434;-78